sensor_id;sensor_type;location;lat;lon;timestamp;pressure;altitude;pressure_sealevel;temperature;humidity
23677;BME280;31493;49.058;12.190;2023-02-19T00:00:58;96395.84;;;8.01;100.00
23677;BME280;31493;49.058;12.190;2023-02-19T00:03:28;96393.19;;;8.03;100.00
23677;BME280;31493;49.058;12.190;2023-02-19T00:05:55;96393.19;;;8.03;100.00
23677;BME280;31493;49.058;12.190;2023-02-19T00:08:22;96387.19;;;8.02;100.00
23677;BME280;31493;49.058;12.190;2023-02-19T00:10:49;96387.41;;;7.98;100.00
23677;BME280;31493;49.058;12.190;2023-02-19T00:13:17;96386.03;;;7.92;100.00
23677;BME280;31493;49.058;12.190;2023-02-19T00:15:44;96392.38;;;7.85;100.00
23677;BME280;31493;49.058;12.190;2023-02-19T00:18:11;96381.69;;;7.93;100.00
23677;BME280;31493;49.058;12.190;2023-02-19T00:20:38;96390.22;;;7.77;100.00
23677;BME280;31493;49.058;12.190;2023-02-19T00:23:05;96378.22;;;7.94;100.00
23677;BME280;31493;49.058;12.190;2023-02-19T00:25:35;96378.44;;;7.89;100.00
23677;BME280;31493;49.058;12.190;2023-02-19T00:28:03;96368.22;;;7.88;100.00
23677;BME280;31493;49.058;12.190;2023-02-19T00:30:31;96376.91;;;7.85;100.00
23677;BME280;31493;49.058;12.190;2023-02-19T00:32:58;96371.09;;;7.81;100.00
23677;BME280;31493;49.058;12.190;2023-02-19T00:35:25;96384.63;;;7.69;100.00
23677;BME280;31493;49.058;12.190;2023-02-19T00:37:52;96370.31;;;7.64;100.00
23677;BME280;31493;49.058;12.190;2023-02-19T00:40:19;96378.72;;;7.67;100.00
23677;BME280;31493;49.058;12.190;2023-02-19T00:42:47;96378.50;;;7.54;100.00
23677;BME280;31493;49.058;12.190;2023-02-19T00:45:14;96378.13;;;7.62;100.00
23677;BME280;31493;49.058;12.190;2023-02-19T00:47:43;96389.28;;;7.45;100.00
23677;BME280;31493;49.058;12.190;2023-02-19T00:50:10;96382.78;;;7.38;100.00
23677;BME280;31493;49.058;12.190;2023-02-19T00:52:37;96382.09;;;7.35;100.00
23677;BME280;31493;49.058;12.190;2023-02-19T00:55:05;96383.31;;;7.27;100.00
23677;BME280;31493;49.058;12.190;2023-02-19T00:57:32;96390.28;;;7.25;100.00
23677;BME280;31493;49.058;12.190;2023-02-19T00:59:59;96382.63;;;7.24;100.00
23677;BME280;31493;49.058;12.190;2023-02-19T01:02:26;96372.47;;;7.21;100.00
23677;BME280;31493;49.058;12.190;2023-02-19T01:04:54;96372.63;;;7.18;100.00
23677;BME280;31493;49.058;12.190;2023-02-19T01:07:21;96383.69;;;7.20;100.00
23677;BME280;31493;49.058;12.190;2023-02-19T01:09:49;96373.53;;;7.17;100.00
23677;BME280;31493;49.058;12.190;2023-02-19T01:12:16;96366.88;;;7.13;100.00
23677;BME280;31493;49.058;12.190;2023-02-19T01:14:43;96368.47;;;7.15;100.00
23677;BME280;31493;49.058;12.190;2023-02-19T01:17:10;96372.03;;;7.13;100.00
23677;BME280;31493;49.058;12.190;2023-02-19T01:19:37;96369.81;;;7.05;100.00
23677;BME280;31493;49.058;12.190;2023-02-19T01:22:05;96357.84;;;7.04;100.00
23677;BME280;31493;49.058;12.190;2023-02-19T01:24:32;96356.19;;;7.03;100.00
23677;BME280;31493;49.058;12.190;2023-02-19T01:26:59;96351.78;;;7.05;100.00
23677;BME280;31493;49.058;12.190;2023-02-19T01:29:26;96349.16;;;7.07;100.00
23677;BME280;31493;49.058;12.190;2023-02-19T01:31:53;96348.88;;;7.13;100.00
23677;BME280;31493;49.058;12.190;2023-02-19T01:34:20;96339.63;;;7.09;100.00
23677;BME280;31493;49.058;12.190;2023-02-19T01:36:47;96336.97;;;7.10;100.00
23677;BME280;31493;49.058;12.190;2023-02-19T01:39:15;96319.47;;;7.17;100.00
23677;BME280;31493;49.058;12.190;2023-02-19T01:41:42;96316.97;;;7.15;100.00
23677;BME280;31493;49.058;12.190;2023-02-19T01:47:10;96308.84;;;7.23;100.00
23677;BME280;31493;49.058;12.190;2023-02-19T01:49:40;96320.75;;;7.25;100.00
23677;BME280;31493;49.058;12.190;2023-02-19T01:52:15;96307.88;;;7.25;100.00
23677;BME280;31493;49.058;12.190;2023-02-19T01:54:46;96307.72;;;7.28;100.00
23677;BME280;31493;49.058;12.190;2023-02-19T01:57:17;96309.53;;;7.26;100.00
23677;BME280;31493;49.058;12.190;2023-02-19T01:59:46;96308.94;;;7.21;100.00
23677;BME280;31493;49.058;12.190;2023-02-19T02:02:14;96292.66;;;7.21;100.00
23677;BME280;31493;49.058;12.190;2023-02-19T02:04:41;96302.22;;;7.19;100.00
23677;BME280;31493;49.058;12.190;2023-02-19T02:07:09;96292.38;;;7.10;100.00
23677;BME280;31493;49.058;12.190;2023-02-19T02:09:52;96287.00;;;7.14;100.00
23677;BME280;31493;49.058;12.190;2023-02-19T02:12:36;96279.50;;;7.10;100.00
23677;BME280;31493;49.058;12.190;2023-02-19T02:15:04;96277.66;;;7.12;100.00
23677;BME280;31493;49.058;12.190;2023-02-19T02:17:36;96275.78;;;7.15;100.00
23677;BME280;31493;49.058;12.190;2023-02-19T02:20:26;96276.59;;;7.16;100.00
23677;BME280;31493;49.058;12.190;2023-02-19T02:23:04;96260.31;;;7.15;100.00
23677;BME280;31493;49.058;12.190;2023-02-19T02:25:54;96254.13;;;7.19;100.00
23677;BME280;31493;49.058;12.190;2023-02-19T02:28:41;96263.41;;;7.22;100.00
23677;BME280;31493;49.058;12.190;2023-02-19T02:31:14;96247.69;;;7.11;100.00
23677;BME280;31493;49.058;12.190;2023-02-19T02:33:47;96237.97;;;7.16;100.00
23677;BME280;31493;49.058;12.190;2023-02-19T02:36:20;96234.59;;;7.15;100.00
23677;BME280;31493;49.058;12.190;2023-02-19T02:38:50;96236.16;;;7.18;100.00
23677;BME280;31493;49.058;12.190;2023-02-19T02:41:19;96239.66;;;7.17;100.00
23677;BME280;31493;49.058;12.190;2023-02-19T02:43:46;96235.59;;;7.13;100.00
23677;BME280;31493;49.058;12.190;2023-02-19T02:46:18;96239.81;;;7.14;100.00
23677;BME280;31493;49.058;12.190;2023-02-19T02:48:48;96228.69;;;7.13;100.00
23677;BME280;31493;49.058;12.190;2023-02-19T02:51:21;96226.84;;;7.15;100.00
23677;BME280;31493;49.058;12.190;2023-02-19T02:53:52;96225.44;;;7.10;100.00
23677;BME280;31493;49.058;12.190;2023-02-19T02:56:42;96233.91;;;7.12;100.00
23677;BME280;31493;49.058;12.190;2023-02-19T02:59:13;96220.19;;;7.11;100.00
23677;BME280;31493;49.058;12.190;2023-02-19T03:01:44;96209.84;;;7.13;100.00
23677;BME280;31493;49.058;12.190;2023-02-19T03:04:33;96209.06;;;7.11;100.00
23677;BME280;31493;49.058;12.190;2023-02-19T03:07:04;96205.53;;;7.13;100.00
23677;BME280;31493;49.058;12.190;2023-02-19T03:09:36;96208.84;;;7.15;100.00
23677;BME280;31493;49.058;12.190;2023-02-19T03:12:08;96201.19;;;7.14;100.00
23677;BME280;31493;49.058;12.190;2023-02-19T03:14:57;96198.72;;;7.12;100.00
23677;BME280;31493;49.058;12.190;2023-02-19T03:17:48;96215.13;;;7.10;100.00
23677;BME280;31493;49.058;12.190;2023-02-19T03:20:35;96203.84;;;7.12;100.00
23677;BME280;31493;49.058;12.190;2023-02-19T03:23:06;96203.69;;;7.15;100.00
23677;BME280;31493;49.058;12.190;2023-02-19T03:25:36;96201.44;;;7.09;100.00
23677;BME280;31493;49.058;12.190;2023-02-19T03:28:24;96212.41;;;7.13;100.00
23677;BME280;31493;49.058;12.190;2023-02-19T03:31:08;96202.63;;;7.19;100.00
23677;BME280;31493;49.058;12.190;2023-02-19T03:33:39;96198.78;;;7.11;100.00
23677;BME280;31493;49.058;12.190;2023-02-19T03:36:09;96188.25;;;7.15;100.00
23677;BME280;31493;49.058;12.190;2023-02-19T03:38:44;96199.44;;;7.14;100.00
23677;BME280;31493;49.058;12.190;2023-02-19T03:41:21;96207.91;;;7.16;100.00
23677;BME280;31493;49.058;12.190;2023-02-19T03:43:52;96206.34;;;7.14;100.00
23677;BME280;31493;49.058;12.190;2023-02-19T03:46:26;96197.72;;;7.15;100.00
23677;BME280;31493;49.058;12.190;2023-02-19T03:49:04;96205.34;;;7.16;100.00
23677;BME280;31493;49.058;12.190;2023-02-19T03:51:38;96200.88;;;7.20;100.00
23677;BME280;31493;49.058;12.190;2023-02-19T03:54:12;96200.97;;;7.18;100.00
23677;BME280;31493;49.058;12.190;2023-02-19T03:56:46;96206.34;;;7.14;100.00
23677;BME280;31493;49.058;12.190;2023-02-19T03:59:18;96206.13;;;7.18;100.00
23677;BME280;31493;49.058;12.190;2023-02-19T04:01:50;96199.53;;;7.13;100.00
23677;BME280;31493;49.058;12.190;2023-02-19T04:04:25;96184.09;;;7.13;100.00
23677;BME280;31493;49.058;12.190;2023-02-19T04:06:55;96186.16;;;7.06;100.00
23677;BME280;31493;49.058;12.190;2023-02-19T04:09:26;96187.41;;;7.15;100.00
23677;BME280;31493;49.058;12.190;2023-02-19T04:11:55;96176.94;;;7.18;100.00
23677;BME280;31493;49.058;12.190;2023-02-19T04:14:27;96183.84;;;7.17;100.00
23677;BME280;31493;49.058;12.190;2023-02-19T04:16:59;96171.88;;;7.16;100.00
23677;BME280;31493;49.058;12.190;2023-02-19T04:19:31;96175.44;;;7.14;100.00
23677;BME280;31493;49.058;12.190;2023-02-19T04:22:00;96174.69;;;7.12;100.00
23677;BME280;31493;49.058;12.190;2023-02-19T04:24:31;96176.19;;;7.16;100.00
23677;BME280;31493;49.058;12.190;2023-02-19T04:27:01;96161.06;;;7.10;100.00
23677;BME280;31493;49.058;12.190;2023-02-19T04:29:28;96164.75;;;7.21;100.00
23677;BME280;31493;49.058;12.190;2023-02-19T04:31:55;96180.28;;;7.20;100.00
23677;BME280;31493;49.058;12.190;2023-02-19T04:34:22;96183.59;;;7.22;100.00
23677;BME280;31493;49.058;12.190;2023-02-19T04:36:51;96181.84;;;7.22;100.00
23677;BME280;31493;49.058;12.190;2023-02-19T04:39:18;96174.91;;;7.24;100.00
23677;BME280;31493;49.058;12.190;2023-02-19T04:41:45;96187.91;;;7.21;100.00
23677;BME280;31493;49.058;12.190;2023-02-19T04:44:12;96191.09;;;7.26;100.00
23677;BME280;31493;49.058;12.190;2023-02-19T04:46:39;96197.47;;;7.19;100.00
23677;BME280;31493;49.058;12.190;2023-02-19T04:49:06;96186.84;;;7.25;100.00
23677;BME280;31493;49.058;12.190;2023-02-19T04:51:33;96190.56;;;7.20;100.00
23677;BME280;31493;49.058;12.190;2023-02-19T04:54:02;96188.50;;;7.26;100.00
23677;BME280;31493;49.058;12.190;2023-02-19T04:56:29;96197.81;;;7.29;100.00
23677;BME280;31493;49.058;12.190;2023-02-19T04:58:56;96193.25;;;7.34;100.00
23677;BME280;31493;49.058;12.190;2023-02-19T05:01:23;96188.28;;;7.31;100.00
23677;BME280;31493;49.058;12.190;2023-02-19T05:03:51;96183.34;;;7.26;100.00
23677;BME280;31493;49.058;12.190;2023-02-19T05:06:18;96189.34;;;7.27;100.00
23677;BME280;31493;49.058;12.190;2023-02-19T05:08:45;96192.91;;;7.24;100.00
23677;BME280;31493;49.058;12.190;2023-02-19T05:11:13;96204.88;;;7.25;100.00
23677;BME280;31493;49.058;12.190;2023-02-19T05:13:40;96206.63;;;7.25;100.00
23677;BME280;31493;49.058;12.190;2023-02-19T05:16:10;96209.94;;;7.27;100.00
23677;BME280;31493;49.058;12.190;2023-02-19T05:18:39;96191.72;;;7.14;100.00
23677;BME280;31493;49.058;12.190;2023-02-19T05:21:06;96188.16;;;7.17;100.00
23677;BME280;31493;49.058;12.190;2023-02-19T05:23:33;96190.56;;;7.20;100.00
23677;BME280;31493;49.058;12.190;2023-02-19T05:26:04;96187.09;;;7.21;100.00
23677;BME280;31493;49.058;12.190;2023-02-19T05:28:32;96192.31;;;7.19;100.00
23677;BME280;31493;49.058;12.190;2023-02-19T05:31:04;96197.97;;;7.26;100.00
23677;BME280;31493;49.058;12.190;2023-02-19T05:33:32;96202.25;;;7.10;100.00
23677;BME280;31493;49.058;12.190;2023-02-19T05:36:04;96227.53;;;7.19;100.00
23677;BME280;31493;49.058;12.190;2023-02-19T05:38:31;96221.88;;;7.12;100.00
23677;BME280;31493;49.058;12.190;2023-02-19T05:41:06;96214.16;;;7.12;100.00
23677;BME280;31493;49.058;12.190;2023-02-19T05:43:34;96207.09;;;7.16;100.00
23677;BME280;31493;49.058;12.190;2023-02-19T05:46:01;96209.84;;;7.13;100.00
23677;BME280;31493;49.058;12.190;2023-02-19T05:48:28;96223.22;;;7.19;100.00
23677;BME280;31493;49.058;12.190;2023-02-19T05:51:00;96216.97;;;7.23;100.00
23677;BME280;31493;49.058;12.190;2023-02-19T05:53:27;96214.06;;;7.14;100.00
23677;BME280;31493;49.058;12.190;2023-02-19T05:55:54;96210.50;;;7.16;100.00
23677;BME280;31493;49.058;12.190;2023-02-19T05:58:22;96219.31;;;7.12;100.00
23677;BME280;31493;49.058;12.190;2023-02-19T06:00:50;96206.50;;;7.11;100.00
23677;BME280;31493;49.058;12.190;2023-02-19T06:03:17;96219.31;;;7.12;100.00
23677;BME280;31493;49.058;12.190;2023-02-19T06:05:45;96229.53;;;7.14;100.00
23677;BME280;31493;49.058;12.190;2023-02-19T06:08:12;96231.09;;;7.16;100.00
23677;BME280;31493;49.058;12.190;2023-02-19T06:10:40;96222.78;;;7.11;100.00
23677;BME280;31493;49.058;12.190;2023-02-19T06:13:08;96228.50;;;7.16;100.00
23677;BME280;31493;49.058;12.190;2023-02-19T06:15:35;96237.84;;;7.19;100.00
23677;BME280;31493;49.058;12.190;2023-02-19T06:18:04;96229.53;;;7.14;100.00
23677;BME280;31493;49.058;12.190;2023-02-19T06:20:31;96237.00;;;7.18;100.00
23677;BME280;31493;49.058;12.190;2023-02-19T06:22:58;96243.53;;;7.08;100.00
23677;BME280;31493;49.058;12.190;2023-02-19T06:25:25;96230.94;;;7.19;100.00
23677;BME280;31493;49.058;12.190;2023-02-19T06:27:52;96239.91;;;7.12;100.00
23677;BME280;31493;49.058;12.190;2023-02-19T06:30:19;96251.78;;;7.15;100.00
23677;BME280;31493;49.058;12.190;2023-02-19T06:32:46;96246.63;;;7.15;100.00
23677;BME280;31493;49.058;12.190;2023-02-19T06:35:15;96263.00;;;7.14;100.00
23677;BME280;31493;49.058;12.190;2023-02-19T06:37:42;96261.00;;;7.19;100.00
23677;BME280;31493;49.058;12.190;2023-02-19T06:40:12;96269.63;;;7.18;100.00
23677;BME280;31493;49.058;12.190;2023-02-19T06:42:39;96255.59;;;7.23;100.00
23677;BME280;31493;49.058;12.190;2023-02-19T06:45:07;96272.06;;;7.21;100.00
23677;BME280;31493;49.058;12.190;2023-02-19T06:47:34;96266.63;;;7.10;100.00
23677;BME280;31493;49.058;12.190;2023-02-19T06:50:01;96270.84;;;7.11;100.00
23677;BME280;31493;49.058;12.190;2023-02-19T06:52:29;96275.25;;;7.09;100.00
23677;BME280;31493;49.058;12.190;2023-02-19T06:54:56;96275.78;;;7.15;100.00
23677;BME280;31493;49.058;12.190;2023-02-19T06:57:23;96283.72;;;7.11;100.00
23677;BME280;31493;49.058;12.190;2023-02-19T06:59:50;96279.88;;;7.02;100.00
23677;BME280;31493;49.058;12.190;2023-02-19T07:02:17;96284.56;;;7.11;100.00
23677;BME280;31493;49.058;12.190;2023-02-19T07:04:44;96283.81;;;7.09;100.00
23677;BME280;31493;49.058;12.190;2023-02-19T07:07:11;96278.06;;;7.04;100.00
23677;BME280;31493;49.058;12.190;2023-02-19T07:09:40;96306.47;;;7.03;100.00
23677;BME280;31493;49.058;12.190;2023-02-19T07:12:07;96284.22;;;7.02;100.00
23677;BME280;31493;49.058;12.190;2023-02-19T07:14:34;96288.44;;;7.03;100.00
23677;BME280;31493;49.058;12.190;2023-02-19T07:17:02;96309.56;;;6.92;100.00
23677;BME280;31493;49.058;12.190;2023-02-19T07:19:29;96309.34;;;6.96;100.00
23677;BME280;31493;49.058;12.190;2023-02-19T07:21:56;96315.63;;;6.91;100.00
23677;BME280;31493;49.058;12.190;2023-02-19T07:24:23;96297.59;;;6.91;100.00
23677;BME280;31493;49.058;12.190;2023-02-19T07:26:51;96306.03;;;6.94;100.00
23677;BME280;31493;49.058;12.190;2023-02-19T07:29:18;96317.81;;;6.98;100.00
23677;BME280;31493;49.058;12.190;2023-02-19T07:31:45;96309.47;;;6.93;100.00
23677;BME280;31493;49.058;12.190;2023-02-19T07:34:12;96316.00;;;7.00;100.00
23677;BME280;31493;49.058;12.190;2023-02-19T07:36:39;96323.13;;;6.95;100.00
23677;BME280;31493;49.058;12.190;2023-02-19T07:39:06;96319.78;;;6.93;100.00
23677;BME280;31493;49.058;12.190;2023-02-19T07:41:33;96322.97;;;6.98;100.00
23677;BME280;31493;49.058;12.190;2023-02-19T07:44:02;96323.44;;;7.07;100.00
23677;BME280;31493;49.058;12.190;2023-02-19T07:46:29;96342.03;;;7.12;100.00
23677;BME280;31493;49.058;12.190;2023-02-19T07:48:58;96326.75;;;7.09;100.00
23677;BME280;31493;49.058;12.190;2023-02-19T07:51:25;96334.38;;;7.10;100.00
23677;BME280;31493;49.058;12.190;2023-02-19T07:53:52;96346.34;;;7.11;100.00
23677;BME280;31493;49.058;12.190;2023-02-19T07:56:19;96349.00;;;7.10;100.00
23677;BME280;31493;49.058;12.190;2023-02-19T07:58:46;96339.00;;;7.04;100.00
23677;BME280;31493;49.058;12.190;2023-02-19T08:01:16;96341.16;;;7.13;100.00
23677;BME280;31493;49.058;12.190;2023-02-19T08:03:46;96333.13;;;7.19;100.00
23677;BME280;31493;49.058;12.190;2023-02-19T08:06:12;96332.28;;;7.18;100.00
23677;BME280;31493;49.058;12.190;2023-02-19T08:08:40;96342.09;;;7.27;100.00
23677;BME280;31493;49.058;12.190;2023-02-19T08:11:08;96343.25;;;7.22;100.00
23677;BME280;31493;49.058;12.190;2023-02-19T08:13:53;96354.66;;;7.34;100.00
23677;BME280;31493;49.058;12.190;2023-02-19T08:16:21;96359.69;;;7.37;100.00
23677;BME280;31493;49.058;12.190;2023-02-19T08:18:48;96354.06;;;7.28;100.00
23677;BME280;31493;49.058;12.190;2023-02-19T08:21:15;96362.00;;;7.24;100.00
23677;BME280;31493;49.058;12.190;2023-02-19T08:23:45;96368.25;;;7.20;100.00
23677;BME280;31493;49.058;12.190;2023-02-19T08:26:12;96355.16;;;7.24;100.00
23677;BME280;31493;49.058;12.190;2023-02-19T08:28:39;96355.16;;;7.24;100.00
23677;BME280;31493;49.058;12.190;2023-02-19T08:31:10;96366.19;;;7.26;100.00
23677;BME280;31493;49.058;12.190;2023-02-19T08:33:38;96357.88;;;7.21;100.00
23677;BME280;31493;49.058;12.190;2023-02-19T08:36:07;96373.00;;;7.27;100.00
23677;BME280;31493;49.058;12.190;2023-02-19T08:38:35;96364.59;;;7.24;100.00
23677;BME280;31493;49.058;12.190;2023-02-19T08:41:03;96373.75;;;7.30;100.00
23677;BME280;31493;49.058;12.190;2023-02-19T08:43:31;96374.34;;;7.35;100.00
23677;BME280;31493;49.058;12.190;2023-02-19T08:45:58;96363.97;;;7.36;100.00
23677;BME280;31493;49.058;12.190;2023-02-19T08:48:25;96370.88;;;7.36;100.00
23677;BME280;31493;49.058;12.190;2023-02-19T08:50:55;96373.44;;;7.36;100.00
23677;BME280;31493;49.058;12.190;2023-02-19T08:53:23;96370.72;;;7.39;100.00
23677;BME280;31493;49.058;12.190;2023-02-19T08:55:50;96370.88;;;7.36;100.00
23677;BME280;31493;49.058;12.190;2023-02-19T08:58:18;96370.28;;;7.31;100.00
23677;BME280;31493;49.058;12.190;2023-02-19T09:00:45;96374.06;;;7.41;100.00
23677;BME280;31493;49.058;12.190;2023-02-19T09:03:12;96385.19;;;7.41;100.00
23677;BME280;31493;49.058;12.190;2023-02-19T09:05:39;96391.84;;;7.45;100.00
23677;BME280;31493;49.058;12.190;2023-02-19T09:08:08;96395.78;;;7.35;100.00
23677;BME280;31493;49.058;12.190;2023-02-19T09:10:35;96377.41;;;7.43;100.00
23677;BME280;31493;49.058;12.190;2023-02-19T09:13:02;96395.44;;;7.43;100.00
23677;BME280;31493;49.058;12.190;2023-02-19T09:15:29;96395.88;;;7.34;100.00
23677;BME280;31493;49.058;12.190;2023-02-19T09:17:57;96413.78;;;7.37;100.00
23677;BME280;31493;49.058;12.190;2023-02-19T09:20:24;96397.53;;;7.35;100.00
23677;BME280;31493;49.058;12.190;2023-02-19T09:22:55;96396.50;;;7.39;100.00
23677;BME280;31493;49.058;12.190;2023-02-19T09:25:24;96404.06;;;7.42;100.00
23677;BME280;31493;49.058;12.190;2023-02-19T09:27:53;96401.84;;;7.51;100.00
23677;BME280;31493;49.058;12.190;2023-02-19T09:30:20;96409.19;;;7.59;100.00
23677;BME280;31493;49.058;12.190;2023-02-19T09:32:47;96408.66;;;7.52;100.00
23677;BME280;31493;49.058;12.190;2023-02-19T09:35:15;96412.91;;;7.53;100.00
23677;BME280;31493;49.058;12.190;2023-02-19T09:37:42;96418.66;;;7.59;100.00
23677;BME280;31493;49.058;12.190;2023-02-19T09:40:09;96413.75;;;7.54;100.00
23677;BME280;31493;49.058;12.190;2023-02-19T09:42:39;96428.13;;;7.58;100.00
23677;BME280;31493;49.058;12.190;2023-02-19T09:45:14;96426.69;;;7.52;100.00
23677;BME280;31493;49.058;12.190;2023-02-19T09:47:43;96419.88;;;7.51;100.00
23677;BME280;31493;49.058;12.190;2023-02-19T09:50:13;96435.19;;;7.54;100.00
23677;BME280;31493;49.058;12.190;2023-02-19T09:52:44;96421.25;;;7.59;100.00
23677;BME280;31493;49.058;12.190;2023-02-19T09:55:15;96422.16;;;7.58;100.00
23677;BME280;31493;49.058;12.190;2023-02-19T09:57:45;96431.19;;;7.49;100.00
23677;BME280;31493;49.058;12.190;2023-02-19T10:00:20;96441.25;;;7.53;100.00
23677;BME280;31493;49.058;12.190;2023-02-19T10:02:50;96449.66;;;7.57;100.00
23677;BME280;31493;49.058;12.190;2023-02-19T10:05:17;96449.88;;;7.52;100.00
23677;BME280;31493;49.058;12.190;2023-02-19T10:07:47;96447.19;;;7.56;100.00
23677;BME280;31493;49.058;12.190;2023-02-19T10:10:23;96463.53;;;7.54;100.00
23677;BME280;31493;49.058;12.190;2023-02-19T10:12:55;96464.22;;;7.58;100.00
23677;BME280;31493;49.058;12.190;2023-02-19T10:15:28;96450.41;;;7.59;100.00
23677;BME280;31493;49.058;12.190;2023-02-19T10:17:57;96463.22;;;7.61;100.00
23677;BME280;31493;49.058;12.190;2023-02-19T10:20:25;96451.78;;;7.66;100.00
23677;BME280;31493;49.058;12.190;2023-02-19T10:22:57;96454.03;;;7.72;100.00
23677;BME280;31493;49.058;12.190;2023-02-19T10:25:26;96459.06;;;7.75;100.00
23677;BME280;31493;49.058;12.190;2023-02-19T10:27:56;96440.53;;;7.85;100.00
23677;BME280;31493;49.058;12.190;2023-02-19T10:30:25;96450.09;;;7.82;100.00
23677;BME280;31493;49.058;12.190;2023-02-19T10:32:59;96463.06;;;7.81;100.00
23677;BME280;31493;49.058;12.190;2023-02-19T10:35:26;96466.69;;;7.77;100.00
23677;BME280;31493;49.058;12.190;2023-02-19T10:37:54;96466.47;;;7.81;100.00
23677;BME280;31493;49.058;12.190;2023-02-19T10:40:24;96454.34;;;7.84;100.00
23677;BME280;31493;49.058;12.190;2023-02-19T10:42:55;96457.75;;;7.84;100.00
23677;BME280;31493;49.058;12.190;2023-02-19T10:45:33;96456.00;;;7.85;100.00
23677;BME280;31493;49.058;12.190;2023-02-19T10:48:05;96455.78;;;7.89;100.00
23677;BME280;31493;49.058;12.190;2023-02-19T10:50:33;96468.78;;;8.03;100.00
23677;BME280;31493;49.058;12.190;2023-02-19T10:53:04;96460.53;;;7.97;100.00
23677;BME280;31493;49.058;12.190;2023-02-19T10:55:33;96460.84;;;7.91;100.00
23677;BME280;31493;49.058;12.190;2023-02-19T10:58:22;96477.91;;;7.93;100.00
23677;BME280;31493;49.058;12.190;2023-02-19T11:01:11;96470.31;;;7.90;100.00
23677;BME280;31493;49.058;12.190;2023-02-19T11:03:38;96486.28;;;7.81;100.00
23677;BME280;31493;49.058;12.190;2023-02-19T11:06:08;96477.94;;;7.76;100.00
23677;BME280;31493;49.058;12.190;2023-02-19T11:08:45;96489.91;;;7.77;100.00
23677;BME280;31493;49.058;12.190;2023-02-19T11:11:24;96478.28;;;7.86;100.00
23677;BME280;31493;49.058;12.190;2023-02-19T11:13:54;96491.56;;;7.78;100.00
23677;BME280;31493;49.058;12.190;2023-02-19T11:16:23;96492.25;;;7.81;100.00
23677;BME280;31493;49.058;12.190;2023-02-19T11:18:54;96487.25;;;7.78;100.00
23677;BME280;31493;49.058;12.190;2023-02-19T11:21:25;96481.94;;;7.81;100.00
23677;BME280;31493;49.058;12.190;2023-02-19T11:23:58;96473.13;;;7.86;100.00
23677;BME280;31493;49.058;12.190;2023-02-19T11:26:30;96478.63;;;7.79;100.00
23677;BME280;31493;49.058;12.190;2023-02-19T11:29:11;96472.38;;;7.84;100.00
23677;BME280;31493;49.058;12.190;2023-02-19T11:31:39;96476.88;;;7.80;100.00
23677;BME280;31493;49.058;12.190;2023-02-19T11:34:25;96473.53;;;7.78;100.00
23677;BME280;31493;49.058;12.190;2023-02-19T11:37:07;96483.59;;;7.82;100.00
23677;BME280;31493;49.058;12.190;2023-02-19T11:39:35;96470.03;;;7.79;100.00
23677;BME280;31493;49.058;12.190;2023-02-19T11:42:29;96475.19;;;7.79;100.00
23677;BME280;31493;49.058;12.190;2023-02-19T11:45:12;96470.41;;;7.89;100.00
23677;BME280;31493;49.058;12.190;2023-02-19T11:51:01;96467.75;;;7.90;100.00
23677;BME280;31493;49.058;12.190;2023-02-19T11:53:31;96479.16;;;7.86;100.00
23677;BME280;31493;49.058;12.190;2023-02-19T11:56:10;96468.88;;;7.85;100.00
23677;BME280;31493;49.058;12.190;2023-02-19T11:59:11;96473.22;;;7.84;100.00
23677;BME280;31493;49.058;12.190;2023-02-19T12:01:55;96467.91;;;7.87;100.00
23677;BME280;31493;49.058;12.190;2023-02-19T12:04:53;96464.34;;;7.90;100.00
23677;BME280;31493;49.058;12.190;2023-02-19T12:10:32;96492.28;;;7.97;100.00
23677;BME280;31493;49.058;12.190;2023-02-19T12:13:07;96494.31;;;7.92;100.00
23677;BME280;31493;49.058;12.190;2023-02-19T12:15:43;96485.66;;;7.93;100.00
23677;BME280;31493;49.058;12.190;2023-02-19T12:18:42;96477.19;;;8.07;100.00
23677;BME280;31493;49.058;12.190;2023-02-19T12:21:22;96479.88;;;8.05;100.00
23677;BME280;31493;49.058;12.190;2023-02-19T12:24:14;96484.50;;;7.99;100.00
23677;BME280;31493;49.058;12.190;2023-02-19T12:26:58;96493.00;;;8.01;100.00
23677;BME280;31493;49.058;12.190;2023-02-19T12:29:46;96490.00;;;8.08;100.00
23677;BME280;31493;49.058;12.190;2023-02-19T12:32:27;96489.03;;;8.11;100.00
23677;BME280;31493;49.058;12.190;2023-02-19T12:35:27;96488.53;;;8.20;100.00
23677;BME280;31493;49.058;12.190;2023-02-19T12:38:06;96493.88;;;8.17;100.00
23677;BME280;31493;49.058;12.190;2023-02-19T12:40:44;96478.97;;;8.22;100.00
23677;BME280;31493;49.058;12.190;2023-02-19T12:43:17;96502.44;;;8.18;100.00
23677;BME280;31493;49.058;12.190;2023-02-19T12:45:48;96504.78;;;8.22;100.00
23677;BME280;31493;49.058;12.190;2023-02-19T12:48:25;96505.63;;;8.23;100.00
23677;BME280;31493;49.058;12.190;2023-02-19T12:50:58;96503.19;;;8.20;100.00
23677;BME280;31493;49.058;12.190;2023-02-19T12:53:34;96501.22;;;8.25;100.00
23677;BME280;31493;49.058;12.190;2023-02-19T12:56:08;96494.13;;;8.28;100.00
23677;BME280;31493;49.058;12.190;2023-02-19T12:58:40;96510.69;;;8.24;100.00
23677;BME280;31493;49.058;12.190;2023-02-19T13:01:13;96515.56;;;8.13;100.00
23677;BME280;31493;49.058;12.190;2023-02-19T13:03:46;96514.81;;;8.11;100.00
23677;BME280;31493;49.058;12.190;2023-02-19T13:06:25;96502.25;;;7.88;100.00
23677;BME280;31493;49.058;12.190;2023-02-19T13:08:59;96498.63;;;7.57;100.00
23677;BME280;31493;49.058;12.190;2023-02-19T13:11:32;96501.72;;;7.46;100.00
23677;BME280;31493;49.058;12.190;2023-02-19T13:14:04;96515.72;;;7.41;100.00
23677;BME280;31493;49.058;12.190;2023-02-19T13:16:33;96517.47;;;7.40;100.00
23677;BME280;31493;49.058;12.190;2023-02-19T13:19:04;96519.84;;;7.45;100.00